Time;durP1;ratioP1;P1;durP2;ratioP2;P2;SDS_P1;SDS_P2;PMS_P1;PMS_P2;Temp;Humidity;BMP_temperature;BMP_pressure;BME280_temperature;BME280_humidity;BME280_pressure;Samples;Min_cycle;Max_cycle;Signal;HPM_P1;HPM_P2
2022/03/09 00:01:27;;;;;;;46.38;28.58;;;7.20;48.10;;;;;;5000774;28;20026;-83
2022/03/09 00:03:53;;;;;;;43.63;27.98;;;7.10;48.40;;;;;;4996779;28;20037;-82
2022/03/09 00:06:19;;;;;;;65.75;28.98;;;7.10;48.40;;;;;;5006857;28;20038;-82
2022/03/09 00:08:45;;;;;;;39.35;26.17;;;7.00;48.40;;;;;;5012541;28;20050;-82
2022/03/09 00:11:10;;;;;;;46.67;30.30;;;7.00;48.40;;;;;;5010774;28;20050;-82
2022/03/09 00:13:36;;;;;;;47.67;28.98;;;7.00;48.90;;;;;;5001526;28;20037;-82
2022/03/09 00:16:02;;;;;;;45.13;28.85;;;6.90;49.20;;;;;;5004476;28;20047;-82
2022/03/09 00:18:27;;;;;;;43.42;27.38;;;6.90;49.10;;;;;;4998426;28;20038;-82
2022/03/09 00:20:53;;;;;;;41.35;27.50;;;6.80;49.30;;;;;;4998006;28;20038;-83
2022/03/09 00:23:19;;;;;;;40.65;27.80;;;6.80;49.40;;;;;;4998898;28;20077;-83
2022/03/09 00:25:45;;;;;;;42.70;27.98;;;6.80;49.40;;;;;;5006125;28;20041;-83
2022/03/09 00:28:11;;;;;;;47.15;26.95;;;6.80;49.90;;;;;;5005327;28;20038;-83
2022/03/09 00:30:36;;;;;;;43.35;28.60;;;6.80;50.10;;;;;;5013516;28;20164;-83
2022/03/09 00:33:02;;;;;;;45.75;29.05;;;6.80;50.10;;;;;;5001311;28;20048;-83
2022/03/09 00:35:28;;;;;;;43.17;27.90;;;6.70;49.80;;;;;;4982200;28;20038;-83
2022/03/09 00:37:53;;;;;;;48.08;26.88;;;6.60;50.20;;;;;;4997214;28;20038;-83
2022/03/09 00:40:19;;;;;;;41.83;26.73;;;6.60;50.40;;;;;;5000636;28;20022;-83
2022/03/09 00:42:45;;;;;;;39.72;25.88;;;6.60;50.10;;;;;;5003933;28;20042;-83
2022/03/09 00:45:11;;;;;;;47.00;28.15;;;6.70;50.60;;;;;;4999584;28;20049;-83
2022/03/09 00:47:37;;;;;;;43.42;25.77;;;6.70;50.70;;;;;;5010287;28;20035;-84
2022/03/09 00:50:04;;;;;;;44.15;26.52;;;6.70;50.40;;;;;;4979838;28;20113;-83
2022/03/09 00:52:30;;;;;;;44.13;27.73;;;6.60;50.90;;;;;;4977745;28;20042;-83
2022/03/09 00:54:56;;;;;;;49.72;27.65;;;6.60;51.60;;;;;;5005984;28;20044;-83
2022/03/09 00:57:22;;;;;;;40.47;25.55;;;6.60;50.80;;;;;;4999022;28;20045;-82
2022/03/09 00:59:47;;;;;;;48.50;26.45;;;6.70;51.10;;;;;;5004055;28;20030;-82
2022/03/09 01:02:13;;;;;;;48.60;28.40;;;6.70;51.10;;;;;;5001488;28;20049;-83
2022/03/09 01:04:39;;;;;;;47.78;26.92;;;6.70;50.80;;;;;;4998574;28;20123;-83
2022/03/09 01:07:05;;;;;;;45.67;28.88;;;6.60;50.70;;;;;;4994801;28;20038;-82
2022/03/09 01:09:31;;;;;;;41.28;25.17;;;6.60;50.90;;;;;;4984651;28;20030;-82
2022/03/09 01:11:57;;;;;;;46.67;26.92;;;6.70;51.80;;;;;;4994118;28;20039;-82
2022/03/09 01:14:24;;;;;;;43.90;26.25;;;6.70;51.10;;;;;;4994538;28;20038;-81
2022/03/09 01:16:49;;;;;;;41.78;26.67;;;6.60;51.00;;;;;;5010953;28;20510;-81
2022/03/09 01:19:15;;;;;;;44.17;27.73;;;6.60;51.50;;;;;;5004307;28;20058;-81
2022/03/09 01:21:41;;;;;;;43.53;26.92;;;6.50;51.90;;;;;;5012934;28;20040;-81
2022/03/09 01:24:07;;;;;;;43.25;26.05;;;6.60;52.30;;;;;;5005456;28;20565;-82
2022/03/09 01:26:33;;;;;;;50.00;26.63;;;6.60;51.90;;;;;;4996398;28;20054;-82
2022/03/09 01:28:59;;;;;;;47.83;28.25;;;6.60;51.80;;;;;;4997749;28;20068;-82
2022/03/09 01:31:25;;;;;;;53.13;29.65;;;6.50;51.90;;;;;;5011438;28;20054;-82
2022/03/09 01:33:51;;;;;;;52.03;26.67;;;6.40;52.20;;;;;;5009074;28;20525;-82
2022/03/09 01:36:17;;;;;;;47.03;27.60;;;6.40;52.50;;;;;;4976482;28;20042;-82
2022/03/09 01:38:42;;;;;;;38.63;27.05;;;6.40;52.30;;;;;;4998193;28;20034;-82
2022/03/09 01:41:08;;;;;;;44.97;28.10;;;6.40;52.20;;;;;;5009568;28;20049;-81
2022/03/09 01:43:34;;;;;;;42.03;28.02;;;6.40;52.60;;;;;;4980204;28;20030;-82
2022/03/09 01:46:00;;;;;;;48.65;29.88;;;6.30;52.80;;;;;;4982586;28;20117;-81
2022/03/09 01:48:25;;;;;;;46.47;28.45;;;6.30;53.40;;;;;;5005527;28;20046;-81
2022/03/09 01:50:51;;;;;;;45.33;28.15;;;6.30;53.60;;;;;;4980264;28;20044;-82
2022/03/09 01:53:18;;;;;;;49.95;31.38;;;6.20;53.10;;;;;;5009720;28;20813;-82
2022/03/09 01:55:45;;;;;;;49.90;27.70;;;6.20;53.60;;;;;;5000174;28;20042;-82
2022/03/09 01:58:10;;;;;;;46.80;29.17;;;6.10;53.60;;;;;;5008224;28;20037;-82
2022/03/09 02:00:36;;;;;;;60.20;30.58;;;6.00;53.70;;;;;;4998339;28;20045;-81
2022/03/09 02:03:02;;;;;;;61.67;29.80;;;6.10;53.90;;;;;;4994240;28;20493;-80
2022/03/09 02:05:28;;;;;;;68.50;33.40;;;6.00;54.00;;;;;;4995840;28;20045;-81
2022/03/09 02:10:39;;;;;;;53.20;31.50;;;5.90;54.00;;;;;;5006702;28;20041;-80
2022/03/09 02:13:07;;;;;;;53.65;31.98;;;5.80;54.60;;;;;;4978687;28;20042;-81
2022/03/09 02:15:32;;;;;;;51.78;32.17;;;5.70;54.30;;;;;;4997755;28;20038;-81
2022/03/09 02:18:01;;;;;;;51.25;31.20;;;5.70;54.80;;;;;;5007234;28;20041;-81
2022/03/09 02:20:27;;;;;;;57.70;31.83;;;5.60;55.20;;;;;;4997799;28;20034;-81
2022/03/09 02:22:53;;;;;;;58.22;34.92;;;5.60;55.70;;;;;;5006879;28;20061;-80
2022/03/09 02:25:19;;;;;;;51.55;31.88;;;5.50;55.60;;;;;;4997721;28;20460;-80
2022/03/09 02:27:46;;;;;;;53.50;31.30;;;5.50;55.80;;;;;;4999437;28;20095;-80
2022/03/09 02:30:14;;;;;;;53.35;32.78;;;5.40;55.70;;;;;;4990011;28;20038;-80
2022/03/09 02:32:42;;;;;;;54.20;33.33;;;5.60;55.90;;;;;;5003416;28;20043;-81
2022/03/09 02:35:10;;;;;;;57.28;33.75;;;5.50;55.50;;;;;;4990212;28;20173;-80
2022/03/09 02:37:36;;;;;;;50.55;31.77;;;5.40;55.80;;;;;;5001992;28;20088;-81
2022/03/09 02:40:02;;;;;;;52.42;34.05;;;5.50;55.70;;;;;;5012878;28;20026;-81
2022/03/09 02:42:28;;;;;;;54.33;32.97;;;5.50;56.00;;;;;;5004989;28;20120;-82
2022/03/09 02:44:54;;;;;;;53.97;34.13;;;5.50;56.30;;;;;;4990126;28;20436;-82
2022/03/09 02:47:19;;;;;;;55.70;33.47;;;5.40;56.40;;;;;;5004591;28;20053;-82
2022/03/09 02:49:45;;;;;;;54.92;33.38;;;5.40;56.60;;;;;;5011756;28;20101;-82
2022/03/09 02:52:11;;;;;;;57.65;35.35;;;5.30;57.10;;;;;;5006834;28;20118;-82
2022/03/09 02:54:36;;;;;;;59.63;34.65;;;5.30;56.90;;;;;;5003048;28;20070;-81
2022/03/09 02:57:02;;;;;;;56.40;34.50;;;5.30;56.90;;;;;;5005962;28;20119;-82
2022/03/09 02:59:28;;;;;;;56.88;35.30;;;5.30;56.90;;;;;;5000345;28;20030;-81
2022/03/09 03:01:54;;;;;;;63.80;36.30;;;5.20;57.00;;;;;;4986500;28;20048;-81
2022/03/09 03:04:20;;;;;;;56.35;33.53;;;5.20;57.50;;;;;;5005886;28;20038;-82
2022/03/09 03:06:45;;;;;;;55.00;33.38;;;5.20;57.60;;;;;;5001303;28;20117;-81
2022/03/09 03:09:11;;;;;;;54.35;33.97;;;5.20;57.80;;;;;;5008540;28;20046;-81
2022/03/09 03:11:36;;;;;;;59.65;35.70;;;5.20;57.50;;;;;;4981026;28;20039;-81
2022/03/09 03:14:02;;;;;;;53.63;33.05;;;5.10;57.50;;;;;;5000251;28;20033;-81
2022/03/09 03:16:28;;;;;;;62.05;33.13;;;5.10;57.50;;;;;;5001154;28;20437;-81
2022/03/09 03:18:53;;;;;;;53.75;32.20;;;5.10;57.70;;;;;;5011704;28;20034;-81
2022/03/09 03:21:19;;;;;;;56.28;33.08;;;5.10;57.50;;;;;;5010445;28;20418;-81
2022/03/09 03:23:45;;;;;;;50.38;31.25;;;5.10;57.40;;;;;;4984668;28;20096;-81
2022/03/09 03:26:10;;;;;;;51.03;30.58;;;5.20;57.20;;;;;;5010497;28;20117;-80
2022/03/09 03:28:36;;;;;;;51.80;29.25;;;5.30;56.40;;;;;;4996508;28;20078;-80
2022/03/09 03:31:02;;;;;;;52.28;30.35;;;5.30;55.80;;;;;;4998950;28;20113;-80
2022/03/09 03:33:28;;;;;;;49.83;30.45;;;5.50;55.90;;;;;;4996593;28;20034;-80
2022/03/09 03:35:54;;;;;;;54.17;33.35;;;5.60;54.50;;;;;;5005127;28;20042;-80
2022/03/09 03:38:20;;;;;;;48.78;29.88;;;5.70;54.60;;;;;;5015276;28;20042;-80
2022/03/09 03:40:46;;;;;;;50.65;30.02;;;5.80;54.40;;;;;;5011631;28;20038;-80
2022/03/09 03:43:12;;;;;;;44.63;29.55;;;5.70;54.20;;;;;;4999752;28;20475;-80
2022/03/09 03:45:37;;;;;;;57.72;33.45;;;5.70;53.90;;;;;;5006495;28;20041;-81
2022/03/09 03:48:03;;;;;;;50.38;28.75;;;5.70;54.50;;;;;;4996246;28;20042;-81
2022/03/09 03:50:29;;;;;;;45.63;27.83;;;5.60;54.00;;;;;;5003203;28;20391;-81
2022/03/09 03:52:55;;;;;;;49.40;31.20;;;5.60;53.80;;;;;;4995987;28;20497;-82
2022/03/09 03:55:21;;;;;;;54.70;29.00;;;5.60;54.10;;;;;;5000766;28;20065;-81
2022/03/09 03:57:47;;;;;;;49.58;29.10;;;5.60;54.40;;;;;;5001763;28;20112;-81
2022/03/09 04:00:13;;;;;;;53.55;30.08;;;5.60;54.10;;;;;;5011191;28;20649;-82
2022/03/09 04:02:39;;;;;;;43.92;27.50;;;5.70;54.30;;;;;;5015985;28;20089;-82
2022/03/09 04:05:05;;;;;;;48.00;27.38;;;5.70;54.60;;;;;;5015268;28;20041;-81
2022/03/09 04:07:31;;;;;;;48.28;28.50;;;5.70;53.60;;;;;;5012013;28;20141;-81
2022/03/09 04:09:57;;;;;;;47.80;28.63;;;5.70;53.50;;;;;;5011180;28;20040;-81
2022/03/09 04:12:24;;;;;;;40.92;27.60;;;5.70;53.60;;;;;;5014809;28;20117;-80
2022/03/09 04:14:50;;;;;;;45.42;27.88;;;5.70;53.00;;;;;;5000330;28;20088;-80
2022/03/09 04:17:16;;;;;;;39.03;26.25;;;5.70;53.20;;;;;;4980663;28;20080;-80
2022/03/09 04:19:42;;;;;;;48.08;27.88;;;5.80;53.60;;;;;;4980546;28;20070;-80
2022/03/09 04:22:07;;;;;;;49.70;27.45;;;5.80;53.30;;;;;;5003309;28;20370;-79
2022/03/09 04:24:33;;;;;;;44.08;28.83;;;5.80;53.00;;;;;;5003165;28;20039;-80
2022/03/09 04:26:59;;;;;;;45.00;27.73;;;5.80;53.20;;;;;;4998352;28;20045;-81
2022/03/09 04:29:24;;;;;;;45.72;27.63;;;5.80;52.80;;;;;;4979552;28;20738;-81
2022/03/09 04:31:50;;;;;;;48.92;30.05;;;5.70;52.70;;;;;;4996651;28;20038;-82
2022/03/09 04:34:15;;;;;;;43.47;27.35;;;5.70;53.50;;;;;;5005140;28;20478;-82
2022/03/09 04:36:41;;;;;;;43.47;27.15;;;5.60;53.90;;;;;;4980333;28;20066;-81
2022/03/09 04:39:07;;;;;;;46.47;27.17;;;5.70;54.30;;;;;;4997948;28;20037;-82
2022/03/09 04:41:33;;;;;;;40.25;25.58;;;5.70;53.70;;;;;;5008141;28;20502;-81
2022/03/09 04:43:58;;;;;;;42.13;26.88;;;5.80;53.30;;;;;;5009234;28;20031;-81
2022/03/09 04:46:24;;;;;;;48.92;27.27;;;5.80;52.90;;;;;;5010122;28;20042;-82
2022/03/09 04:48:50;;;;;;;48.00;29.33;;;5.70;53.70;;;;;;4999324;28;20505;-81
2022/03/09 04:51:16;;;;;;;45.83;30.48;;;5.70;53.50;;;;;;5000308;28;20209;-81
2022/03/09 04:53:42;;;;;;;40.20;27.45;;;5.50;54.10;;;;;;5004356;28;20049;-81
2022/03/09 04:56:08;;;;;;;47.70;29.27;;;5.40;54.70;;;;;;5005609;28;20030;-82
2022/03/09 04:58:34;;;;;;;44.50;27.15;;;5.40;54.50;;;;;;4996819;28;20129;-82
2022/03/09 05:01:01;;;;;;;44.92;26.67;;;5.40;55.10;;;;;;5011615;28;20410;-86
2022/03/09 05:03:27;;;;;;;45.42;28.17;;;5.50;54.10;;;;;;4980209;28;20056;-86
2022/03/09 05:05:53;;;;;;;49.03;27.35;;;5.60;54.50;;;;;;5013989;28;20117;-86
2022/03/09 05:08:19;;;;;;;45.65;29.00;;;5.60;54.40;;;;;;5014492;28;20088;-86
2022/03/09 05:10:44;;;;;;;48.45;29.00;;;5.60;54.30;;;;;;4999311;28;20046;-86
2022/03/09 05:13:10;;;;;;;58.38;30.92;;;5.60;55.30;;;;;;4995066;28;20097;-85
2022/03/09 05:15:36;;;;;;;50.53;28.63;;;5.50;55.50;;;;;;5002404;28;20046;-86
2022/03/09 05:18:02;;;;;;;39.95;26.98;;;5.40;55.80;;;;;;4997143;28;20073;-84
2022/03/09 05:20:27;;;;;;;42.53;28.55;;;5.40;55.60;;;;;;4997127;28;20030;-85
2022/03/09 05:22:53;;;;;;;44.58;26.67;;;5.40;55.70;;;;;;4994733;28;20038;-85
2022/03/09 05:25:19;;;;;;;47.63;27.95;;;5.40;55.50;;;;;;4996120;28;20153;-85
2022/03/09 05:27:45;;;;;;;50.85;29.17;;;5.50;54.90;;;;;;4993317;28;20422;-85
2022/03/09 05:30:12;;;;;;;50.15;28.67;;;5.60;54.60;;;;;;5003503;28;20035;-86
2022/03/09 05:32:40;;;;;;;46.92;28.05;;;5.50;55.10;;;;;;5013476;28;20134;-86
2022/03/09 05:35:07;;;;;;;52.63;31.30;;;5.50;55.90;;;;;;5008343;28;20056;-86
2022/03/09 05:37:37;;;;;;;50.63;29.35;;;5.40;56.30;;;;;;5005160;28;20499;-85
2022/03/09 05:40:03;;;;;;;50.97;29.60;;;5.20;57.60;;;;;;4997317;28;20038;-85
2022/03/09 05:42:29;;;;;;;47.65;29.90;;;5.10;57.80;;;;;;5010279;28;20037;-82
2022/03/09 05:44:55;;;;;;;50.13;31.25;;;4.90;58.20;;;;;;5003511;28;20049;-81
2022/03/09 05:47:21;;;;;;;48.53;30.63;;;4.80;58.90;;;;;;5007477;28;20106;-83
2022/03/09 05:49:46;;;;;;;44.17;27.52;;;4.80;58.90;;;;;;5005774;28;20122;-81
2022/03/09 05:52:12;;;;;;;46.03;29.05;;;5.00;58.70;;;;;;4993527;28;20113;-81
2022/03/09 05:54:38;;;;;;;47.33;28.50;;;5.10;58.30;;;;;;5004813;28;20514;-81
2022/03/09 05:57:04;;;;;;;54.13;28.88;;;5.00;58.00;;;;;;5000969;28;20537;-82
2022/03/09 05:59:30;;;;;;;48.78;29.73;;;5.00;57.70;;;;;;4995656;28;20050;-81
2022/03/09 06:01:55;;;;;;;51.53;30.98;;;4.90;57.40;;;;;;5005021;28;20387;-82
2022/03/09 06:04:21;;;;;;;51.92;30.45;;;4.70;58.00;;;;;;4998918;28;20065;-81
2022/03/09 06:06:47;;;;;;;47.13;30.05;;;4.60;58.40;;;;;;5000202;28;20074;-82
2022/03/09 06:09:12;;;;;;;52.05;29.58;;;4.50;58.80;;;;;;5001496;28;20038;-80
2022/03/09 06:11:38;;;;;;;46.58;27.20;;;4.50;58.80;;;;;;5006872;28;20506;-86
2022/03/09 06:14:04;;;;;;;48.25;30.30;;;4.30;58.20;;;;;;5009169;28;20394;-84
2022/03/09 06:16:29;;;;;;;51.42;28.73;;;4.10;58.90;;;;;;5001939;28;20043;-84
2022/03/09 06:18:55;;;;;;;51.33;29.35;;;3.90;59.20;;;;;;5007253;28;20474;-82
2022/03/09 06:21:21;;;;;;;44.97;27.88;;;3.90;59.50;;;;;;4994544;28;20042;-84
2022/03/09 06:23:47;;;;;;;52.42;29.23;;;3.90;59.40;;;;;;5000179;28;20038;-81
2022/03/09 06:26:12;;;;;;;46.05;28.75;;;3.90;59.00;;;;;;4975783;28;20038;-81
2022/03/09 06:28:38;;;;;;;47.90;27.08;;;3.80;59.70;;;;;;5005888;28;20045;-82
2022/03/09 06:31:04;;;;;;;46.20;27.80;;;3.70;59.60;;;;;;4999989;28;20129;-82
2022/03/09 06:33:30;;;;;;;46.17;28.48;;;3.80;59.90;;;;;;4995146;28;20038;-81
2022/03/09 06:35:56;;;;;;;45.13;27.63;;;3.90;60.10;;;;;;4978245;28;20514;-81
2022/03/09 06:38:21;;;;;;;49.42;29.45;;;3.90;59.90;;;;;;4993419;28;20088;-82
2022/03/09 06:40:47;;;;;;;44.20;26.02;;;4.00;60.80;;;;;;4993704;28;20038;-82
2022/03/09 06:43:13;;;;;;;45.60;28.20;;;4.20;60.40;;;;;;5005982;28;20406;-82
2022/03/09 06:45:38;;;;;;;49.40;27.83;;;4.30;59.90;;;;;;5002325;28;20038;-82
2022/03/09 06:48:05;;;;;;;45.17;26.30;;;4.20;59.20;;;;;;5008184;28;20049;-80
2022/03/09 06:50:30;;;;;;;48.70;29.10;;;4.10;59.20;;;;;;5007979;28;20121;-81
2022/03/09 06:52:56;;;;;;;45.85;27.33;;;4.10;59.20;;;;;;5011262;28;20156;-81
2022/03/09 06:55:22;;;;;;;42.80;26.83;;;4.20;59.10;;;;;;4999112;28;20046;-81
2022/03/09 06:57:48;;;;;;;47.25;27.73;;;4.20;59.50;;;;;;4995480;28;20089;-81
2022/03/09 07:00:14;;;;;;;49.03;28.48;;;4.30;59.20;;;;;;5007300;28;20376;-81
2022/03/09 07:02:41;;;;;;;48.83;26.20;;;4.30;58.70;;;;;;5014892;28;20117;-81
2022/03/09 07:05:07;;;;;;;46.63;25.75;;;4.40;58.70;;;;;;5026446;28;20069;-83
2022/03/09 07:07:34;;;;;;;39.13;24.67;;;4.30;57.00;;;;;;5021658;28;20038;-84
2022/03/09 07:09:59;;;;;;;40.35;24.33;;;4.40;58.20;;;;;;4995307;28;20042;-79
2022/03/09 07:12:25;;;;;;;41.08;24.70;;;4.60;57.60;;;;;;5006716;28;20121;-79
2022/03/09 07:14:51;;;;;;;40.15;24.23;;;4.60;56.40;;;;;;5000974;28;20053;-79
2022/03/09 07:17:17;;;;;;;39.35;23.80;;;4.50;55.80;;;;;;5015272;28;20046;-80
2022/03/09 07:19:43;;;;;;;43.22;25.63;;;4.60;56.40;;;;;;5002088;28;20030;-81
2022/03/09 07:22:09;;;;;;;41.38;26.50;;;4.50;56.30;;;;;;5009117;28;20032;-80
2022/03/09 07:24:35;;;;;;;38.17;22.80;;;4.50;56.80;;;;;;5007917;28;20398;-81
2022/03/09 07:27:01;;;;;;;41.60;24.88;;;4.60;57.00;;;;;;5011057;28;20057;-81
2022/03/09 07:29:26;;;;;;;40.22;23.92;;;4.80;57.50;;;;;;5002451;28;20073;-80
2022/03/09 07:31:53;;;;;;;44.00;25.13;;;5.00;57.40;;;;;;5003901;28;20056;-82
2022/03/09 07:34:22;;;;;;;43.30;25.83;;;5.10;56.50;;;;;;5011337;28;20041;-81
2022/03/09 07:36:49;;;;;;;42.55;24.70;;;5.10;56.40;;;;;;5014201;28;20430;-79
2022/03/09 07:39:14;;;;;;;44.85;26.27;;;5.20;56.70;;;;;;5007400;28;20080;-80
2022/03/09 07:41:41;;;;;;;42.50;25.25;;;5.30;56.30;;;;;;5010977;28;20038;-81
2022/03/09 07:44:15;;;;;;;44.05;26.65;;;5.40;56.50;;;;;;5001950;28;20113;-81
2022/03/09 07:46:41;;;;;;;39.45;24.25;;;5.60;56.50;;;;;;4997605;28;20062;-81
2022/03/09 07:49:08;;;;;;;42.65;25.40;;;5.70;56.10;;;;;;4999547;28;20030;-82
2022/03/09 07:51:35;;;;;;;39.15;25.02;;;5.80;55.50;;;;;;5013596;28;20041;-82
2022/03/09 07:54:00;;;;;;;38.30;23.98;;;6.00;56.00;;;;;;5013931;28;20034;-83
2022/03/09 07:56:26;;;;;;;42.05;27.50;;;6.20;55.90;;;;;;5014888;28;20497;-82
2022/03/09 07:58:52;;;;;;;43.45;26.40;;;6.40;54.70;;;;;;5015078;28;20076;-82
2022/03/09 08:01:17;;;;;;;42.75;25.27;;;6.40;55.00;;;;;;4995097;28;20120;-83
2022/03/09 08:03:44;;;;;;;38.42;24.92;;;6.50;54.20;;;;;;5015104;28;20034;-82
2022/03/09 08:06:10;;;;;;;42.90;28.77;;;6.60;54.80;;;;;;5013642;28;20029;-83
2022/03/09 08:08:36;;;;;;;81.97;48.15;;;6.80;54.30;;;;;;5012983;28;20034;-81
2022/03/09 08:11:02;;;;;;;40.60;27.20;;;7.00;52.50;;;;;;5014270;28;20381;-81
2022/03/09 08:13:27;;;;;;;40.45;26.50;;;7.10;53.20;;;;;;5013240;28;20100;-81
2022/03/09 08:15:53;;;;;;;39.88;26.50;;;7.20;53.20;;;;;;5009122;28;20046;-82
2022/03/09 08:18:19;;;;;;;41.83;26.30;;;7.30;53.60;;;;;;5007143;28;20033;-83
2022/03/09 08:20:45;;;;;;;44.70;28.02;;;7.50;51.80;;;;;;5010907;28;20044;-82
2022/03/09 08:23:10;;;;;;;43.50;27.95;;;7.70;51.90;;;;;;5005759;28;20057;-83
2022/03/09 08:25:36;;;;;;;48.75;28.17;;;7.80;53.10;;;;;;5002786;28;20121;-84
2022/03/09 08:28:02;;;;;;;50.10;30.92;;;7.90;52.20;;;;;;5009722;28;20042;-83
2022/03/09 08:30:28;;;;;;;47.35;27.40;;;7.90;51.30;;;;;;4995601;28;20038;-83
2022/03/09 08:32:54;;;;;;;47.28;28.23;;;8.00;51.80;;;;;;5004231;28;20046;-84
2022/03/09 08:35:20;;;;;;;66.45;31.48;;;8.20;50.60;;;;;;4997900;28;20086;-82
2022/03/09 08:37:45;;;;;;;46.65;30.23;;;8.40;50.90;;;;;;5006512;28;20091;-83
2022/03/09 08:40:12;;;;;;;43.78;30.05;;;8.50;51.20;;;;;;5008004;28;20360;-82
2022/03/09 08:42:39;;;;;;;48.47;29.00;;;8.60;49.10;;;;;;4994139;28;20065;-82
2022/03/09 08:45:05;;;;;;;49.53;31.52;;;8.70;50.60;;;;;;5013363;28;20547;-84
2022/03/09 08:47:30;;;;;;;44.22;30.50;;;8.90;49.70;;;;;;5007309;28;20038;-84
2022/03/09 08:49:57;;;;;;;49.15;33.17;;;8.90;48.70;;;;;;5006440;28;20025;-84
2022/03/09 08:52:23;;;;;;;44.83;30.35;;;8.90;48.90;;;;;;5006784;28;20030;-83
2022/03/09 08:54:53;;;;;;;46.97;31.65;;;9.10;49.00;;;;;;5011430;28;20518;-82
2022/03/09 08:57:20;;;;;;;54.88;34.45;;;9.30;49.60;;;;;;5009431;28;20033;-82
2022/03/09 08:59:46;;;;;;;45.65;32.20;;;9.30;47.40;;;;;;5008569;28;20042;-82
2022/03/09 09:02:12;;;;;;;44.28;30.52;;;9.40;47.80;;;;;;5006967;28;20026;-82
2022/03/09 09:04:38;;;;;;;48.40;32.25;;;9.60;47.20;;;;;;5009796;28;20029;-83
2022/03/09 09:07:06;;;;;;;44.63;31.55;;;9.80;46.80;;;;;;5011255;28;20522;-83
2022/03/09 09:09:35;;;;;;;48.38;32.97;;;10.10;47.00;;;;;;5001168;28;20038;-82
2022/03/09 09:12:01;;;;;;;44.75;30.55;;;10.30;45.00;;;;;;5010528;28;20554;-82
2022/03/09 09:14:28;;;;;;;45.53;32.38;;;10.30;44.70;;;;;;5004026;28;20042;-82
2022/03/09 09:16:54;;;;;;;45.13;30.77;;;10.40;43.30;;;;;;4995228;28;20096;-82
2022/03/09 09:19:20;;;;;;;47.50;32.10;;;10.50;43.70;;;;;;5002272;28;20113;-83
2022/03/09 09:21:46;;;;;;;44.50;32.90;;;10.60;43.10;;;;;;4997858;28;20026;-82
2022/03/09 09:24:13;;;;;;;44.08;31.60;;;10.60;43.70;;;;;;5009019;28;20382;-84
2022/03/09 09:26:39;;;;;;;42.63;31.48;;;10.70;44.00;;;;;;5005768;28;20046;-83
2022/03/09 09:29:05;;;;;;;42.20;30.35;;;10.90;44.00;;;;;;5003630;28;20470;-84
2022/03/09 09:31:32;;;;;;;44.92;31.65;;;11.20;44.00;;;;;;4993765;28;20046;-84
2022/03/09 09:33:58;;;;;;;46.88;31.60;;;11.40;43.20;;;;;;4995937;28;20038;-85
2022/03/09 09:36:23;;;;;;;47.10;31.48;;;11.70;42.70;;;;;;4989928;28;20045;-84
2022/03/09 09:38:49;;;;;;;43.45;29.08;;;11.80;42.00;;;;;;5008549;28;20363;-83
2022/03/09 09:41:18;;;;;;;49.00;30.23;;;12.00;41.50;;;;;;5006678;28;20494;-84
2022/03/09 09:43:45;;;;;;;43.43;29.67;;;12.30;41.50;;;;;;5013293;28;20113;-83
2022/03/09 09:46:15;;;;;;;41.13;30.73;;;12.50;40.40;;;;;;5010476;28;20038;-83
2022/03/09 09:48:42;;;;;;;44.28;31.77;;;12.70;40.30;;;;;;5014234;28;20122;-83
2022/03/09 09:51:09;;;;;;;47.53;30.67;;;12.80;39.70;;;;;;5033186;28;20596;-83
2022/03/09 09:53:35;;;;;;;44.05;31.85;;;13.00;39.20;;;;;;5032629;28;20120;-84
2022/03/09 09:56:03;;;;;;;41.28;31.30;;;13.10;37.60;;;;;;4998416;28;20154;-84
2022/03/09 09:58:29;;;;;;;41.30;29.88;;;13.20;37.90;;;;;;5032389;28;20046;-84
2022/03/09 10:00:56;;;;;;;39.47;29.45;;;13.30;37.90;;;;;;4999159;28;20030;-84
2022/03/09 10:03:21;;;;;;;40.25;30.63;;;13.50;38.40;;;;;;5012867;28;20042;-85
2022/03/09 10:05:47;;;;;;;43.15;32.05;;;13.70;37.00;;;;;;5016202;28;20040;-84
2022/03/09 10:08:16;;;;;;;40.85;31.77;;;13.70;36.40;;;;;;5032947;28;20034;-84
2022/03/09 10:10:59;;;;;;;44.38;31.95;;;13.80;36.70;;;;;;5032265;28;20060;-84
2022/03/09 10:13:33;;;;;;;43.20;32.10;;;14.00;36.90;;;;;;5015151;28;20041;-84
2022/03/09 10:16:09;;;;;;;42.95;32.28;;;14.20;36.00;;;;;;5024762;28;20038;-84
2022/03/09 10:18:35;;;;;;;43.50;31.40;;;14.30;35.20;;;;;;5004171;28;20085;-85
2022/03/09 10:21:17;;;;;;;49.65;33.00;;;14.50;35.90;;;;;;5014693;28;20058;-82
2022/03/09 10:24:16;;;;;;;61.00;38.25;;;14.70;36.50;;;;;;5001647;28;20035;-82
2022/03/09 10:26:42;;;;;;;49.05;39.28;;;14.80;36.70;;;;;;4971781;28;20084;-82
2022/03/09 10:29:13;;;;;;;53.42;37.72;;;14.90;36.80;;;;;;4993345;28;20030;-83
2022/03/09 10:31:49;;;;;;;57.25;38.10;;;15.00;36.30;;;;;;5008226;28;20068;-81
2022/03/09 10:34:24;;;;;;;52.50;37.30;;;15.00;35.80;;;;;;5003681;28;20478;-83
2022/03/09 10:36:58;;;;;;;55.30;37.60;;;15.00;36.60;;;;;;4980572;28;20470;-81
2022/03/09 10:39:28;;;;;;;50.25;36.25;;;15.10;35.30;;;;;;5015453;28;20045;-82
2022/03/09 10:41:54;;;;;;;61.83;38.57;;;15.20;34.30;;;;;;5010452;28;20038;-83
2022/03/09 10:44:39;;;;;;;57.80;37.92;;;15.30;34.40;;;;;;4979978;28;20468;-83
2022/03/09 10:47:05;;;;;;;52.58;35.03;;;15.50;34.20;;;;;;4992220;28;20136;-83
2022/03/09 10:49:31;;;;;;;59.17;38.00;;;15.60;34.50;;;;;;5001787;28;20423;-82
2022/03/09 10:51:56;;;;;;;54.17;36.67;;;15.60;34.80;;;;;;5015080;28;20054;-82
2022/03/09 10:54:30;;;;;;;55.65;36.08;;;15.60;35.00;;;;;;5014122;28;20038;-85
2022/03/09 10:57:12;;;;;;;65.50;38.67;;;15.80;35.00;;;;;;5010095;28;20077;-85
2022/03/09 10:59:49;;;;;;;55.80;35.38;;;15.90;35.50;;;;;;5016081;28;20128;-85
2022/03/09 11:02:20;;;;;;;42.35;30.58;;;16.00;35.40;;;;;;5014709;28;20050;-82
2022/03/09 11:05:12;;;;;;;40.75;28.55;;;16.20;31.70;;;;;;5010480;28;20038;-81
2022/03/09 11:07:41;;;;;;;39.17;29.40;;;16.20;31.80;;;;;;4996258;28;20073;-81
2022/03/09 11:10:09;;;;;;;40.00;31.50;;;16.40;31.10;;;;;;5013344;28;20050;-82
2022/03/09 11:12:36;;;;;;;38.15;29.77;;;16.50;30.70;;;;;;5010546;28;20099;-81
2022/03/09 11:15:03;;;;;;;38.03;25.70;;;16.50;31.00;;;;;;4988092;28;20099;-81
2022/03/09 11:17:29;;;;;;;38.33;26.92;;;16.50;33.60;;;;;;5012473;28;20124;-81
2022/03/09 11:19:55;;;;;;;33.45;24.08;;;16.60;32.80;;;;;;5009817;28;20034;-81
2022/03/09 11:22:20;;;;;;;40.85;29.55;;;16.80;36.10;;;;;;5003031;28;20398;-81
2022/03/09 11:24:46;;;;;;;36.45;27.25;;;16.90;30.20;;;;;;5006715;28;20091;-80
2022/03/09 11:27:14;;;;;;;50.95;28.25;;;16.70;29.70;;;;;;5007120;28;20121;-80
2022/03/09 11:29:41;;;;;;;34.92;26.20;;;16.90;29.20;;;;;;4993787;28;20042;-79
2022/03/09 11:32:09;;;;;;;39.63;27.98;;;17.10;29.40;;;;;;4994486;28;20141;-79
2022/03/09 11:34:48;;;;;;;37.63;29.73;;;17.10;29.10;;;;;;5012795;28;20053;-80
2022/03/09 11:37:18;;;;;;;36.95;27.88;;;16.90;29.20;;;;;;5010118;28;20116;-81
2022/03/09 11:40:08;;;;;;;37.15;27.73;;;16.90;29.50;;;;;;5006479;28;20034;-81
2022/03/09 11:42:34;;;;;;;38.15;27.27;;;17.10;29.70;;;;;;5005313;28;20023;-81
2022/03/09 11:45:27;;;;;;;34.47;25.45;;;17.40;28.70;;;;;;5012587;28;20034;-81
2022/03/09 11:48:10;;;;;;;37.28;26.33;;;17.60;28.70;;;;;;5010547;28;20049;-81
2022/03/09 11:50:45;;;;;;;33.50;25.98;;;17.80;27.60;;;;;;5010769;28;20027;-81
2022/03/09 11:53:11;;;;;;;40.05;29.83;;;18.00;27.80;;;;;;5004875;28;20108;-81
2022/03/09 11:55:36;;;;;;;37.72;27.75;;;18.30;28.00;;;;;;5014754;28;20041;-82
2022/03/09 11:58:10;;;;;;;36.83;29.77;;;18.70;27.80;;;;;;5015439;28;20406;-82
2022/03/09 12:00:38;;;;;;;36.05;29.35;;;18.80;26.40;;;;;;5014797;28;20041;-82
2022/03/09 12:03:04;;;;;;;35.38;27.08;;;19.20;26.50;;;;;;5012697;28;20033;-82
2022/03/09 12:05:37;;;;;;;36.88;25.67;;;19.60;26.10;;;;;;5015463;28;20502;-81
2022/03/09 12:08:06;;;;;;;40.17;26.58;;;19.90;25.30;;;;;;5016717;28;20517;-81
2022/03/09 12:10:55;;;;;;;40.92;26.15;;;20.30;25.20;;;;;;5002842;28;20042;-82
2022/03/09 12:13:34;;;;;;;40.08;25.45;;;20.50;25.00;;;;;;5012251;28;20048;-81
2022/03/09 12:16:16;;;;;;;35.67;24.60;;;20.50;24.80;;;;;;5001722;28;20137;-82
2022/03/09 12:18:50;;;;;;;30.05;23.00;;;19.70;24.20;;;;;;5003647;28;20038;-82
2022/03/09 12:21:41;;;;;;;31.00;25.08;;;19.70;25.00;;;;;;5007096;28;20084;-84
2022/03/09 12:24:13;;;;;;;28.70;23.33;;;19.80;24.20;;;;;;5004355;28;20391;-83
2022/03/09 12:26:55;;;;;;;27.92;23.77;;;20.10;24.00;;;;;;5006529;28;20045;-83
2022/03/09 12:29:21;;;;;;;30.80;21.90;;;20.30;24.30;;;;;;5010102;28;20066;-83
2022/03/09 12:32:04;;;;;;;28.85;22.52;;;20.60;23.70;;;;;;5009244;28;20110;-81
2022/03/09 12:34:35;;;;;;;27.13;20.60;;;20.00;23.30;;;;;;5011599;28;20128;-81
2022/03/09 12:37:01;;;;;;;30.33;22.20;;;19.80;23.20;;;;;;4994330;28;20030;-83